Time;durP1;ratioP1;P1;durP2;ratioP2;P2;SDS_P1;SDS_P2;PMS_P1;PMS_P2;Temp;Humidity;BMP_temperature;BMP_pressure;BME280_temperature;BME280_humidity;BME280_pressure;Samples;Min_cycle;Max_cycle;Signal;HPM_P1;HPM_P2
2023/06/04 00:00:51;;;;;;;0.10;0.10;;;;;;;20.41;37.44;102331.22;5042405;28;20869;-66
2023/06/04 00:03:16;;;;;;;0.10;0.10;;;;;;;20.87;36.23;102330.66;5045973;28;20025;-66
2023/06/04 00:05:42;;;;;;;0.10;0.10;;;;;;;20.53;37.35;102337.38;5053702;28;20040;-67
2023/06/04 00:08:07;;;;;;;0.10;0.10;;;;;;;20.45;37.30;102328.78;5053282;28;20541;-66
2023/06/04 00:10:33;;;;;;;0.10;0.10;;;;;;;20.32;37.72;102326.47;5053436;28;20083;-66
2023/06/04 00:12:59;;;;;;;0.10;0.10;;;;;;;20.44;37.31;102324.44;5053733;28;20065;-66
2023/06/04 00:15:24;;;;;;;0.10;0.10;;;;;;;20.42;37.49;102337.50;5053815;28;20021;-67
2023/06/04 00:17:50;;;;;;;0.15;0.15;;;;;;;20.19;37.92;102335.84;5061030;28;20033;-68
2023/06/04 00:20:17;;;;;;;0.13;0.13;;;;;;;20.24;37.83;102324.16;5053164;28;20037;-67
2023/06/04 00:22:42;;;;;;;0.13;0.13;;;;;;;20.14;38.07;102327.56;5047047;28;20053;-67
2023/06/04 00:25:09;;;;;;;0.10;0.10;;;;;;;20.34;37.31;102330.59;5042951;28;20040;-66
2023/06/04 00:27:35;;;;;;;0.10;0.10;;;;;;;20.28;37.53;102325.31;5039810;28;20609;-67
2023/06/04 00:30:00;;;;;;;0.20;0.20;;;;;;;20.20;38.01;102321.13;5033538;28;20053;-67
2023/06/04 00:32:25;;;;;;;0.10;0.10;;;;;;;20.34;37.62;102329.75;5029198;28;20030;-66
2023/06/04 00:34:52;;;;;;;0.17;0.17;;;;;;;20.05;38.53;102331.78;5031153;28;20094;-66
2023/06/04 00:37:17;;;;;;;0.10;0.10;;;;;;;20.07;37.87;102335.91;5052637;28;20037;-66
2023/06/04 00:39:43;;;;;;;0.10;0.10;;;;;;;20.37;37.37;102330.06;5038386;28;20079;-65
2023/06/04 00:42:08;;;;;;;0.10;0.10;;;;;;;20.40;37.67;102337.75;5049927;28;20492;-66
2023/06/04 00:44:34;;;;;;;0.10;0.10;;;;;;;20.03;37.98;102333.94;5037797;28;20033;-68
2023/06/04 00:47:00;;;;;;;0.10;0.10;;;;;;;19.90;38.52;102326.13;5044497;28;20030;-65
2023/06/04 00:49:25;;;;;;;0.10;0.10;;;;;;;19.79;39.25;102327.84;5033067;28;20056;-68
2023/06/04 00:51:51;;;;;;;0.20;0.20;;;;;;;19.90;38.75;102324.22;5032893;28;20025;-67
2023/06/04 00:54:17;;;;;;;0.10;0.10;;;;;;;20.25;37.91;102334.00;5033667;28;20017;-68
2023/06/04 00:56:44;;;;;;;0.20;0.20;;;;;;;19.63;39.46;102330.63;5032762;28;20489;-66
2023/06/04 00:59:10;;;;;;;0.10;0.10;;;;;;;19.86;38.73;102338.59;5032887;28;20057;-68
2023/06/04 01:01:54;;;;;;;0.10;0.10;;;;;;;20.05;38.41;102332.63;5032742;28;20061;-67
2023/06/04 01:04:47;;;;;;;0.20;0.20;;;;;;;20.32;37.96;102340.94;5032805;28;20542;-66
2023/06/04 01:07:15;;;;;;;0.10;0.10;;;;;;;20.20;38.38;102340.22;5032792;28;20045;-66
2023/06/04 01:09:41;;;;;;;0.08;0.08;;;;;;;19.25;40.24;102342.22;5032728;28;20528;-68
2023/06/04 01:12:07;;;;;;;0.10;0.10;;;;;;;19.65;40.06;102339.38;5033134;28;20029;-66
2023/06/04 01:14:35;;;;;;;0.10;0.10;;;;;;;19.69;39.62;102335.06;5040024;28;20493;-66
2023/06/04 01:17:28;;;;;;;0.15;0.15;;;;;;;19.87;39.80;102341.06;5032227;28;20045;-67
2023/06/04 01:19:54;;;;;;;0.10;0.10;;;;;;;20.13;38.70;102328.63;5047381;28;20082;-66
2023/06/04 01:22:38;;;;;;;0.10;0.10;;;;;;;19.75;40.34;102337.63;5036171;28;20056;-67
2023/06/04 01:25:12;;;;;;;0.10;0.10;;;;;;;19.86;39.69;102339.44;5052471;28;20358;-66
2023/06/04 01:27:40;;;;;;;0.10;0.10;;;;;;;19.47;40.81;102340.47;5047428;28;20037;-66
2023/06/04 01:30:08;;;;;;;0.10;0.10;;;;;;;19.01;41.70;102343.41;5065126;28;20074;-66
2023/06/04 01:32:33;;;;;;;0.20;0.20;;;;;;;19.53;41.00;102346.81;5052032;28;20041;-67
2023/06/04 01:34:59;;;;;;;0.10;0.10;;;;;;;19.77;40.24;102348.31;5052245;28;20381;-66
2023/06/04 01:37:26;;;;;;;0.10;0.10;;;;;;;19.45;41.10;102339.03;5052078;28;20037;-66
2023/06/04 01:39:51;;;;;;;0.10;0.10;;;;;;;19.53;41.20;102338.63;5052273;28;20059;-68
2023/06/04 01:42:17;;;;;;;0.10;0.10;;;;;;;19.55;41.22;102340.03;5052740;28;20481;-65
2023/06/04 01:44:42;;;;;;;0.10;0.10;;;;;;;19.37;41.67;102339.44;5052193;28;20029;-67
2023/06/04 01:47:07;;;;;;;0.10;0.10;;;;;;;19.50;41.50;102339.16;5051959;28;20115;-66
2023/06/04 01:49:33;;;;;;;0.10;0.10;;;;;;;19.49;41.89;102332.84;5051695;28;20037;-65
2023/06/04 01:51:58;;;;;;;0.10;0.10;;;;;;;19.40;41.69;102331.59;5052085;28;20037;-68
2023/06/04 01:54:24;;;;;;;0.20;0.20;;;;;;;19.21;43.07;102332.88;5052248;28;20037;-66
2023/06/04 01:56:49;;;;;;;0.15;0.15;;;;;;;19.38;42.47;102332.94;5051628;28;20405;-69
2023/06/04 01:59:16;;;;;;;0.10;0.10;;;;;;;18.97;43.43;102331.34;5051491;28;20037;-65
2023/06/04 02:01:41;;;;;;;0.20;0.20;;;;;;;19.27;42.68;102330.00;5051629;28;20065;-66
2023/06/04 02:04:07;;;;;;;0.10;0.10;;;;;;;19.26;42.97;102336.50;5051243;28;20064;-67
2023/06/04 02:06:32;;;;;;;0.10;0.10;;;;;;;19.27;42.94;102330.00;5051972;28;20028;-66
2023/06/04 02:08:57;;;;;;;0.10;0.10;;;;;;;19.34;43.33;102334.50;5051364;28;20033;-66
2023/06/04 02:11:23;;;;;;;0.10;0.10;;;;;;;19.06;43.98;102335.34;5059191;28;20041;-66
2023/06/04 02:13:48;;;;;;;0.10;0.10;;;;;;;18.69;44.46;102339.53;5051451;28;20401;-67
2023/06/04 02:16:14;;;;;;;0.10;0.10;;;;;;;19.11;43.82;102338.16;5041727;28;20382;-65
2023/06/04 02:18:39;;;;;;;0.10;0.10;;;;;;;18.90;44.34;102339.69;5031324;28;20031;-68
2023/06/04 02:21:05;;;;;;;0.20;0.20;;;;;;;18.83;44.85;102338.19;5031789;28;20053;-67
2023/06/04 02:23:30;;;;;;;0.10;0.10;;;;;;;18.81;45.00;102334.88;5031189;28;20053;-67
2023/06/04 02:25:55;;;;;;;0.10;0.10;;;;;;;18.70;45.57;102335.72;5031142;28;20044;-67
2023/06/04 02:28:21;;;;;;;0.10;0.10;;;;;;;18.77;44.96;102333.72;5031049;28;20042;-68
2023/06/04 02:30:46;;;;;;;0.10;0.10;;;;;;;18.68;45.48;102337.88;5031192;28;20017;-67
2023/06/04 02:33:13;;;;;;;0.10;0.10;;;;;;;18.70;45.78;102342.00;5031382;28;20045;-66
2023/06/04 02:35:38;;;;;;;0.10;0.10;;;;;;;18.78;45.79;102341.63;5031075;28;20040;-65
2023/06/04 02:38:04;;;;;;;0.10;0.10;;;;;;;18.37;46.92;102347.28;5048137;28;20041;-67
2023/06/04 02:40:30;;;;;;;0.13;0.13;;;;;;;18.66;46.66;102345.44;5050738;28;20428;-67
2023/06/04 02:42:56;;;;;;;0.10;0.10;;;;;;;18.56;46.33;102350.69;5050875;28;20025;-67
2023/06/04 02:45:22;;;;;;;0.10;0.10;;;;;;;18.34;47.49;102347.75;5051445;28;20045;-66
2023/06/04 02:47:48;;;;;;;0.20;0.20;;;;;;;18.04;48.03;102347.09;5050850;28;20078;-64
2023/06/04 02:50:15;;;;;;;0.10;0.10;;;;;;;18.19;48.11;102342.00;5050518;28;20029;-65
2023/06/04 02:52:41;;;;;;;0.20;0.20;;;;;;;18.49;47.66;102342.69;5050798;28;20112;-66
2023/06/04 02:55:08;;;;;;;0.10;0.10;;;;;;;18.22;48.10;102349.69;5050568;28;20508;-65
2023/06/04 02:57:34;;;;;;;0.20;0.20;;;;;;;18.02;48.50;102341.91;5050858;28;20144;-65
2023/06/04 02:59:59;;;;;;;0.10;0.10;;;;;;;18.44;47.45;102339.84;5050718;28;20103;-67
2023/06/04 03:02:25;;;;;;;0.20;0.20;;;;;;;18.44;48.00;102339.84;5050519;28;20460;-66
2023/06/04 03:04:52;;;;;;;0.10;0.10;;;;;;;17.50;50.54;102327.34;5050470;28;20570;-66
2023/06/04 03:07:20;;;;;;;0.10;0.10;;;;;;;18.18;49.01;102338.44;5050484;28;20029;-68
2023/06/04 03:09:46;;;;;;;0.20;0.20;;;;;;;18.15;48.86;102335.38;5045500;28;20029;-66
2023/06/04 03:12:11;;;;;;;0.10;0.10;;;;;;;18.23;48.63;102332.28;5050695;28;20394;-66
2023/06/04 03:14:37;;;;;;;0.20;0.20;;;;;;;18.08;48.95;102334.69;5050452;28;20044;-66
2023/06/04 03:17:07;;;;;;;0.10;0.10;;;;;;;17.88;49.49;102335.06;5050252;28;20040;-67
2023/06/04 03:19:41;;;;;;;0.10;0.10;;;;;;;17.90;49.79;102327.47;5049723;28;20029;-66
2023/06/04 03:22:08;;;;;;;0.20;0.10;;;;;;;17.94;50.27;102334.09;5049907;28;20029;-66
2023/06/04 03:24:36;;;;;;;0.10;0.10;;;;;;;17.93;50.64;102332.44;5065910;28;20070;-66
2023/06/04 03:27:02;;;;;;;0.20;0.20;;;;;;;17.62;50.86;102340.09;5050107;28;20053;-69
2023/06/04 03:29:28;;;;;;;0.10;0.10;;;;;;;17.24;52.10;102335.03;5049369;28;20045;-67
2023/06/04 03:31:53;;;;;;;0.10;0.10;;;;;;;17.46;52.58;102331.56;5049461;28;20116;-67
2023/06/04 03:34:18;;;;;;;0.20;0.20;;;;;;;17.63;52.06;102336.34;5049035;28;20033;-66
2023/06/04 03:36:44;;;;;;;0.20;0.20;;;;;;;18.19;50.13;102333.81;5030878;28;20476;-67
2023/06/04 03:39:10;;;;;;;0.20;0.20;;;;;;;17.72;51.39;102332.19;5052093;28;20021;-66
2023/06/04 03:41:35;;;;;;;0.10;0.10;;;;;;;17.88;51.12;102331.50;5053155;28;20041;-67
2023/06/04 03:44:00;;;;;;;0.10;0.10;;;;;;;18.25;49.98;102335.59;5053328;28;20040;-66
2023/06/04 03:46:28;;;;;;;0.10;0.10;;;;;;;18.27;49.75;102338.91;5053421;28;20097;-65
2023/06/04 03:48:54;;;;;;;0.10;0.10;;;;;;;18.36;49.75;102340.16;5053129;28;21667;-68
2023/06/04 03:51:20;;;;;;;0.10;0.10;;;;;;;18.32;50.13;102334.38;5053805;28;20025;-66
2023/06/04 03:53:45;;;;;;;0.20;0.20;;;;;;;18.53;50.05;102335.69;5053125;28;20504;-67
2023/06/04 03:56:11;;;;;;;0.10;0.10;;;;;;;18.49;50.32;102333.69;5052973;28;20523;-65
2023/06/04 03:58:36;;;;;;;0.10;0.10;;;;;;;18.45;50.58;102337.94;5053032;28;20090;-66
2023/06/04 04:01:04;;;;;;;0.25;0.10;;;;;;;18.29;50.90;102336.78;5050012;28;20037;-66
2023/06/04 04:03:31;;;;;;;0.17;0.17;;;;;;;18.21;51.51;102335.25;5055973;28;20044;-67
2023/06/04 04:05:57;;;;;;;0.10;0.10;;;;;;;18.50;50.13;102336.16;5045408;28;20120;-67
2023/06/04 04:08:23;;;;;;;0.13;0.13;;;;;;;18.43;50.96;102330.03;5039408;28;20045;-66
2023/06/04 04:10:48;;;;;;;0.20;0.20;;;;;;;18.59;50.82;102323.81;5048170;28;20028;-66
2023/06/04 04:13:14;;;;;;;0.20;0.20;;;;;;;18.51;50.34;102326.09;5053065;28;20121;-67
2023/06/04 04:15:39;;;;;;;0.20;0.20;;;;;;;18.59;50.54;102323.00;5053108;28;20029;-67
2023/06/04 04:18:08;;;;;;;0.10;0.10;;;;;;;18.59;50.98;102333.88;5053919;28;20021;-65
2023/06/04 04:20:33;;;;;;;0.10;0.10;;;;;;;18.86;49.98;102322.16;5052985;28;20087;-66
2023/06/04 04:22:58;;;;;;;0.10;0.10;;;;;;;18.31;52.28;102324.59;5053371;28;20045;-66
2023/06/04 04:25:24;;;;;;;0.10;0.10;;;;;;;18.57;51.65;102325.97;5053518;28;20029;-66
2023/06/04 04:27:49;;;;;;;0.10;0.10;;;;;;;18.60;51.47;102327.34;5046481;28;20037;-66
2023/06/04 04:30:16;;;;;;;0.10;0.10;;;;;;;18.60;51.89;102328.19;5052476;28;20032;-67
2023/06/04 04:32:48;;;;;;;0.10;0.10;;;;;;;18.38;52.14;102324.44;5053136;28;20040;-65
2023/06/04 04:35:14;;;;;;;0.10;0.10;;;;;;;18.33;52.94;102335.22;5053053;28;20033;-65
2023/06/04 04:37:40;;;;;;;0.15;0.10;;;;;;;18.32;53.29;102337.09;5053628;28;20033;-66
2023/06/04 04:40:11;;;;;;;0.10;0.10;;;;;;;18.70;52.45;102342.00;5053127;28;20048;-68
2023/06/04 04:42:37;;;;;;;0.20;0.20;;;;;;;18.61;52.95;102342.63;5053464;28;20403;-67
2023/06/04 04:45:03;;;;;;;0.05;0.05;;;;;;;18.15;54.26;102347.09;5053620;28;20061;-67
2023/06/04 04:47:28;;;;;;;0.13;0.13;;;;;;;18.12;54.81;102344.81;5053089;28;20453;-66
2023/06/04 04:49:53;;;;;;;0.10;0.10;;;;;;;17.98;54.94;102345.31;5051497;28;20508;-66
2023/06/04 04:52:19;;;;;;;0.10;0.10;;;;;;;17.29;57.11;102349.63;5052894;28;20066;-65
2023/06/04 04:54:44;;;;;;;0.10;0.10;;;;;;;17.31;57.90;102343.94;5052809;28;20040;-67
2023/06/04 04:57:10;;;;;;;0.10;0.10;;;;;;;18.07;55.15;102350.16;5033597;28;20033;-67
2023/06/04 04:59:35;;;;;;;0.15;0.15;;;;;;;17.41;57.32;102349.63;5058185;28;20115;-66
2023/06/04 05:02:01;;;;;;;0.20;0.20;;;;;;;17.14;58.41;102348.41;5052796;28;20041;-67
2023/06/04 05:04:26;;;;;;;0.10;0.10;;;;;;;17.66;57.07;102341.28;5052681;28;20469;-67
2023/06/04 05:06:51;;;;;;;0.10;0.10;;;;;;;17.47;57.98;102344.06;5046713;28;20029;-65
2023/06/04 05:09:17;;;;;;;0.20;0.20;;;;;;;17.16;58.48;102340.84;5033504;28;20017;-67
2023/06/04 05:11:42;;;;;;;0.10;0.10;;;;;;;17.75;56.99;102342.63;5032610;28;20033;-68
2023/06/04 05:14:07;;;;;;;0.10;0.10;;;;;;;18.68;54.19;102351.47;5032713;28;20038;-67
2023/06/04 05:16:35;;;;;;;0.20;0.20;;;;;;;18.12;55.57;102344.03;5048052;28;20036;-67
2023/06/04 05:19:01;;;;;;;0.20;0.20;;;;;;;18.81;54.37;102351.22;5052409;28;20029;-66
2023/06/04 05:21:28;;;;;;;0.20;0.20;;;;;;;19.03;54.00;102333.09;5052573;28;20025;-65
2023/06/04 05:23:54;;;;;;;0.10;0.10;;;;;;;18.75;54.43;102347.53;5052005;28;20055;-66
2023/06/04 05:26:23;;;;;;;0.13;0.13;;;;;;;19.23;53.65;102344.38;5052281;28;20032;-66
2023/06/04 05:28:51;;;;;;;0.20;0.20;;;;;;;19.66;52.08;102341.00;5049111;28;20738;-66
2023/06/04 05:31:17;;;;;;;0.10;0.10;;;;;;;19.58;52.16;102342.25;5051181;28;20044;-67
2023/06/04 05:33:43;;;;;;;0.10;0.10;;;;;;;19.72;52.13;102342.75;5052214;28;20029;-67
2023/06/04 05:36:09;;;;;;;0.10;0.10;;;;;;;19.85;52.00;102337.78;5052464;28;20098;-66
2023/06/04 05:38:35;;;;;;;0.13;0.13;;;;;;;19.57;52.73;102343.34;5052002;28;20044;-67
2023/06/04 05:41:01;;;;;;;0.00;0.00;;;;;;;19.84;52.66;102347.03;5052019;28;20033;-68
2023/06/04 05:43:27;;;;;;;0.10;0.10;;;;;;;19.82;52.34;102343.75;5051988;28;20080;-66
2023/06/04 05:45:52;;;;;;;0.10;0.10;;;;;;;19.93;52.43;102333.81;5051821;28;20031;-66
2023/06/04 05:48:18;;;;;;;0.13;0.13;;;;;;;19.48;53.64;102342.09;5052399;28;20033;-66
2023/06/04 05:50:43;;;;;;;0.10;0.10;;;;;;;19.28;54.15;102336.28;5051715;28;20029;-66
2023/06/04 05:53:09;;;;;;;0.10;0.10;;;;;;;19.73;53.04;102342.53;5051728;28;20481;-66
2023/06/04 05:55:34;;;;;;;0.10;0.10;;;;;;;19.88;52.05;102337.28;5054848;28;20501;-70
2023/06/04 05:58:00;;;;;;;0.20;0.20;;;;;;;20.30;50.64;102340.38;5051463;28;20040;-65
2023/06/04 06:00:26;;;;;;;0.10;0.10;;;;;;;20.33;50.41;102348.03;5051821;28;20044;-65
2023/06/04 06:02:52;;;;;;;0.10;0.10;;;;;;;19.93;52.09;102347.47;5051189;28;20434;-66
2023/06/04 06:05:18;;;;;;;0.20;0.20;;;;;;;19.84;51.71;102351.66;5051461;28;20366;-66
2023/06/04 06:07:44;;;;;;;0.10;0.10;;;;;;;20.06;50.96;102347.94;5051350;28;20040;-66
2023/06/04 06:10:10;;;;;;;0.20;0.20;;;;;;;20.27;50.94;102350.94;5051383;28;20036;-66
2023/06/04 06:12:35;;;;;;;0.10;0.10;;;;;;;20.69;49.66;102355.59;5051415;28;20021;-66
2023/06/04 06:15:01;;;;;;;0.10;0.10;;;;;;;20.90;48.70;102353.91;5051755;28;20025;-66
2023/06/04 06:17:26;;;;;;;0.13;0.13;;;;;;;21.04;48.63;102357.09;5051210;28;20409;-66
2023/06/04 06:19:52;;;;;;;0.10;0.10;;;;;;;21.46;47.24;102352.59;5051089;28;20044;-66
2023/06/04 06:22:18;;;;;;;0.05;0.05;;;;;;;20.80;48.25;102351.91;5050683;28;20025;-66
2023/06/04 06:24:43;;;;;;;0.20;0.20;;;;;;;21.48;46.74;102345.75;5050896;28;20064;-65
2023/06/04 06:27:09;;;;;;;0.10;0.10;;;;;;;21.08;47.47;102355.50;5051431;28;20070;-66
2023/06/04 06:29:35;;;;;;;0.10;0.10;;;;;;;20.61;48.76;102349.75;5051156;28;20060;-66
2023/06/04 06:32:00;;;;;;;0.15;0.15;;;;;;;20.52;48.02;102356.75;5047292;28;20036;-67
2023/06/04 06:34:26;;;;;;;0.20;0.20;;;;;;;20.67;47.65;102365.13;5050110;28;20036;-67
2023/06/04 06:36:51;;;;;;;0.10;0.10;;;;;;;20.94;46.22;102360.50;5049890;28;20029;-67
2023/06/04 06:39:16;;;;;;;0.10;0.10;;;;;;;19.79;49.35;102360.59;5032506;28;20038;-67
2023/06/04 06:41:42;;;;;;;0.10;0.10;;;;;;;20.92;46.92;102363.50;5050309;28;20094;-67
2023/06/04 06:44:07;;;;;;;0.20;0.20;;;;;;;20.89;46.80;102365.94;5049899;28;20120;-67
2023/06/04 06:46:33;;;;;;;0.20;0.20;;;;;;;21.68;45.15;102361.50;5049830;28;20037;-66
2023/06/04 06:48:58;;;;;;;0.13;0.13;;;;;;;21.50;45.15;102368.19;5050195;28;20053;-67
2023/06/04 06:51:24;;;;;;;0.10;0.10;;;;;;;21.38;45.38;102366.75;5051540;28;20017;-66
2023/06/04 06:53:50;;;;;;;0.10;0.10;;;;;;;21.35;44.72;102369.97;5049832;28;20037;-67
2023/06/04 06:56:16;;;;;;;0.10;0.10;;;;;;;21.87;43.76;102371.00;5049922;28;20611;-67
2023/06/04 06:58:41;;;;;;;0.10;0.10;;;;;;;22.12;43.81;102376.63;5050066;28;20048;-65
2023/06/04 07:01:07;;;;;;;0.10;0.10;;;;;;;21.54;44.89;102374.78;5050020;28;20056;-68
2023/06/04 07:03:32;;;;;;;0.10;0.10;;;;;;;21.80;43.79;102368.47;5050364;28;20361;-66
2023/06/04 07:05:57;;;;;;;0.10;0.10;;;;;;;22.70;41.56;102376.41;5049758;28;20037;-67
2023/06/04 07:08:23;;;;;;;0.20;0.20;;;;;;;22.29;42.84;102371.78;5049848;28;20037;-66
2023/06/04 07:10:48;;;;;;;0.10;0.10;;;;;;;22.69;41.25;102380.25;5047174;28;20504;-67
2023/06/04 07:13:14;;;;;;;0.10;0.10;;;;;;;21.85;42.30;102378.66;5030898;28;20028;-66
2023/06/04 07:15:39;;;;;;;0.10;0.10;;;;;;;22.21;41.47;102383.25;5028322;28;20037;-66
2023/06/04 07:18:04;;;;;;;0.10;0.10;;;;;;;22.31;41.56;102379.78;5047969;28;20397;-66
2023/06/04 07:20:30;;;;;;;0.10;0.10;;;;;;;22.85;39.66;102380.28;5050040;28;20033;-67
2023/06/04 07:22:56;;;;;;;0.10;0.10;;;;;;;22.92;39.19;102386.34;5050035;28;20044;-65
2023/06/04 07:25:23;;;;;;;0.20;0.20;;;;;;;23.22;39.25;102375.44;5047341;28;20079;-66
2023/06/04 07:27:50;;;;;;;0.10;0.10;;;;;;;22.88;39.68;102377.81;5050104;28;20025;-68
2023/06/04 07:30:16;;;;;;;0.10;0.10;;;;;;;23.22;38.69;102375.44;5051867;28;20365;-67
2023/06/04 07:32:45;;;;;;;0.10;0.10;;;;;;;22.99;38.90;102379.50;5058200;28;20029;-67
2023/06/04 07:35:11;;;;;;;0.10;0.10;;;;;;;23.08;37.47;102380.63;5056491;28;20120;-65
2023/06/04 07:37:36;;;;;;;0.10;0.10;;;;;;;23.07;37.34;102383.66;5059398;28;20694;-69
2023/06/04 07:40:02;;;;;;;0.10;0.10;;;;;;;23.49;37.90;102387.00;5060300;28;20029;-64
2023/06/04 07:42:27;;;;;;;0.10;0.10;;;;;;;23.19;37.41;102382.28;5058775;28;20044;-65
2023/06/04 07:44:53;;;;;;;0.13;0.13;;;;;;;23.73;37.73;102384.53;5059913;28;20047;-66
2023/06/04 07:47:18;;;;;;;0.10;0.10;;;;;;;23.12;37.64;102383.63;5060225;28;20048;-65
2023/06/04 07:49:43;;;;;;;0.10;0.10;;;;;;;23.47;37.83;102384.53;5057925;28;20611;-66
2023/06/04 07:52:09;;;;;;;0.10;0.10;;;;;;;23.89;36.31;102378.78;5060127;28;20056;-66
2023/06/04 07:54:34;;;;;;;0.05;0.05;;;;;;;23.42;36.52;102384.56;5057928;28;20083;-65
2023/06/04 07:57:00;;;;;;;0.10;0.10;;;;;;;23.92;36.13;102380.16;5060744;28;20028;-66
2023/06/04 07:59:25;;;;;;;0.10;0.10;;;;;;;24.18;35.34;102379.00;5056951;28;20044;-64
2023/06/04 08:01:53;;;;;;;0.10;0.10;;;;;;;24.36;34.99;102386.66;5058485;28;20040;-65
2023/06/04 08:04:19;;;;;;;0.10;0.10;;;;;;;23.68;36.69;102390.88;5055911;28;20057;-66
2023/06/04 08:06:44;;;;;;;0.00;0.00;;;;;;;22.92;37.69;102391.84;5059468;28;20139;-67
2023/06/04 08:09:11;;;;;;;0.10;0.10;;;;;;;22.50;38.18;102389.16;5060589;28;20460;-65
2023/06/04 08:11:36;;;;;;;0.00;0.00;;;;;;;23.65;35.70;102390.56;5052091;28;20562;-66
2023/06/04 08:14:02;;;;;;;0.05;0.05;;;;;;;24.47;34.44;102390.22;5056636;28;20033;-66
2023/06/04 08:16:27;;;;;;;0.10;0.10;;;;;;;24.53;34.28;102391.84;5044342;28;20030;-66
2023/06/04 08:18:52;;;;;;;0.00;0.00;;;;;;;25.01;33.61;102388.31;5034976;28;21464;-66
2023/06/04 08:21:28;;;;;;;0.10;0.10;;;;;;;25.21;33.38;102382.69;5031159;28;20062;-66
2023/06/04 08:23:55;;;;;;;0.05;0.05;;;;;;;25.03;33.13;102378.69;5059147;28;20447;-65
2023/06/04 08:26:21;;;;;;;0.00;0.00;;;;;;;25.14;33.07;102382.19;5057792;28;20032;-66
2023/06/04 08:28:49;;;;;;;0.10;0.10;;;;;;;25.82;32.24;102392.16;5060456;28;20040;-67
2023/06/04 08:31:15;;;;;;;0.10;0.10;;;;;;;24.09;34.46;102389.75;5059333;28;20032;-66
2023/06/04 08:33:41;;;;;;;0.10;0.10;;;;;;;24.08;34.79;102392.75;5058055;28;20032;-65
2023/06/04 08:36:06;;;;;;;0.00;0.00;;;;;;;24.31;33.44;102392.97;5063029;28;20020;-66
2023/06/04 08:38:32;;;;;;;0.00;0.00;;;;;;;25.04;32.55;102387.78;5061217;28;20513;-66
2023/06/04 08:41:05;;;;;;;0.03;0.03;;;;;;;25.22;31.46;102387.06;5066753;28;20032;-67
2023/06/04 08:43:32;;;;;;;0.00;0.00;;;;;;;24.60;32.09;102386.84;5072759;28;20630;-67
2023/06/04 08:46:01;;;;;;;0.10;0.10;;;;;;;24.88;32.67;102386.22;5053971;28;20121;-67
2023/06/04 08:48:28;;;;;;;0.10;0.10;;;;;;;24.53;33.33;102381.63;5060741;28;20032;-66
2023/06/04 08:50:57;;;;;;;0.00;0.00;;;;;;;26.01;30.65;102401.31;5061134;28;20135;-66
2023/06/04 08:53:22;;;;;;;0.00;0.00;;;;;;;26.42;29.60;102385.19;5044620;28;20033;-66
2023/06/04 08:55:50;;;;;;;0.00;0.00;;;;;;;25.91;31.15;102393.16;5059637;28;20051;-65
2023/06/04 08:58:18;;;;;;;0.20;0.10;;;;;;;25.34;31.01;102381.22;5062214;28;20024;-66
2023/06/04 09:00:43;;;;;;;0.00;0.00;;;;;;;26.72;29.19;102387.63;5060762;28;20029;-67
2023/06/04 09:03:11;;;;;;;0.00;0.00;;;;;;;26.83;29.07;102383.59;5061878;28;20063;-66
2023/06/04 09:05:36;;;;;;;0.03;0.03;;;;;;;27.26;29.77;102391.81;5061811;28;20029;-65
2023/06/04 09:08:04;;;;;;;0.05;0.05;;;;;;;26.42;29.92;102382.44;5063165;28;20653;-65
2023/06/04 09:10:31;;;;;;;0.10;0.10;;;;;;;26.87;29.57;102386.56;5058849;28;20027;-66
2023/06/04 09:13:01;;;;;;;0.00;0.00;;;;;;;26.31;29.61;102386.44;5061808;28;20502;-65
2023/06/04 09:15:26;;;;;;;0.00;0.00;;;;;;;26.52;29.06;102389.75;5045512;28;20044;-65
2023/06/04 09:17:51;;;;;;;0.00;0.00;;;;;;;26.78;28.60;102382.84;5061654;28;20056;-66
2023/06/04 09:20:21;;;;;;;0.00;0.00;;;;;;;26.87;29.69;102398.44;5063668;28;20041;-65
2023/06/04 09:22:47;;;;;;;0.00;0.00;;;;;;;27.03;28.79;102392.72;5054792;28;20049;-65
2023/06/04 09:25:20;;;;;;;0.00;0.00;;;;;;;25.32;31.48;102383.47;5060038;28;20028;-65
2023/06/04 09:27:45;;;;;;;0.00;0.00;;;;;;;26.21;29.13;102385.72;5062505;28;20078;-67
2023/06/04 09:30:11;;;;;;;0.10;0.10;;;;;;;26.75;28.52;102389.75;5061131;28;20009;-65
2023/06/04 09:32:36;;;;;;;0.00;0.00;;;;;;;27.22;26.76;102393.53;5060887;28;20045;-68
2023/06/04 09:35:13;;;;;;;0.00;0.00;;;;;;;27.85;26.72;102389.22;5061388;28;20028;-65
2023/06/04 09:37:40;;;;;;;0.00;0.00;;;;;;;27.88;27.23;102391.34;5059303;28;20033;-65
2023/06/04 09:40:06;;;;;;;0.00;0.00;;;;;;;27.61;27.87;102396.81;5064746;28;20032;-64
2023/06/04 09:42:42;;;;;;;0.00;0.00;;;;;;;27.84;26.89;102393.06;5052560;28;20028;-65
2023/06/04 09:45:08;;;;;;;0.00;0.00;;;;;;;26.72;28.76;102386.78;5052500;28;20048;-66
2023/06/04 09:47:43;;;;;;;0.00;0.00;;;;;;;27.17;28.90;102390.84;5052001;28;20033;-65
2023/06/04 09:50:10;;;;;;;0.00;0.00;;;;;;;27.08;28.87;102384.34;5060431;28;20045;-66
2023/06/04 09:52:37;;;;;;;0.00;0.00;;;;;;;27.75;27.88;102387.41;5061048;28;20048;-66
2023/06/04 09:55:03;;;;;;;0.00;0.00;;;;;;;27.44;28.36;102385.50;5061771;28;20044;-67
2023/06/04 09:57:30;;;;;;;0.00;0.00;;;;;;;27.76;27.92;102386.31;5060954;28;20112;-66
2023/06/04 09:59:57;;;;;;;0.00;0.00;;;;;;;28.13;26.72;102373.50;5060927;28;20056;-65
2023/06/04 10:02:22;;;;;;;0.00;0.00;;;;;;;27.55;26.77;102389.72;5062057;28;20037;-66
2023/06/04 10:04:59;;;;;;;0.00;0.00;;;;;;;26.45;28.94;102384.63;5057371;28;20040;-65
2023/06/04 10:07:26;;;;;;;0.00;0.00;;;;;;;26.03;29.07;102382.56;5059236;28;20040;-66
2023/06/04 10:09:52;;;;;;;0.00;0.00;;;;;;;27.51;27.17;102394.22;5057274;28;20024;-67
2023/06/04 10:12:25;;;;;;;0.00;0.00;;;;;;;27.86;27.04;102393.59;5061967;28;20580;-65
2023/06/04 10:15:01;;;;;;;0.00;0.00;;;;;;;28.10;27.36;102379.66;5061794;28;20483;-67
2023/06/04 10:17:28;;;;;;;0.00;0.00;;;;;;;28.51;27.31;102381.31;5060471;28;20467;-64
2023/06/04 10:19:56;;;;;;;0.00;0.00;;;;;;;28.60;25.95;102378.66;5056978;28;20595;-67
2023/06/04 10:22:21;;;;;;;0.00;0.00;;;;;;;28.60;26.57;102382.25;5058653;28;20029;-67
2023/06/04 10:24:47;;;;;;;0.00;0.00;;;;;;;28.82;25.34;102383.44;5059248;28;20028;-67
2023/06/04 10:27:13;;;;;;;0.00;0.00;;;;;;;29.22;26.03;102386.13;5061295;28;20065;-66
2023/06/04 10:29:39;;;;;;;0.00;0.00;;;;;;;28.91;25.17;102378.81;5061003;28;20041;-65
2023/06/04 10:32:05;;;;;;;0.00;0.00;;;;;;;28.79;24.63;102384.06;5059419;28;20040;-66
2023/06/04 10:34:31;;;;;;;0.00;0.00;;;;;;;29.12;24.50;102386.34;5061255;28;20025;-66
2023/06/04 10:36:56;;;;;;;0.00;0.00;;;;;;;28.92;25.02;102383.22;5060687;28;20518;-67
2023/06/04 10:39:26;;;;;;;0.00;0.00;;;;;;;27.20;26.31;102390.25;5061652;28;20029;-67
2023/06/04 10:42:00;;;;;;;0.00;0.00;;;;;;;28.03;25.44;102387.53;5057689;28;20040;-67
2023/06/04 10:44:25;;;;;;;0.00;0.00;;;;;;;28.63;25.39;102378.88;5059098;28;20040;-67
2023/06/04 10:46:51;;;;;;;0.00;0.00;;;;;;;29.10;25.13;102377.53;5060830;28;20032;-67
2023/06/04 10:49:26;;;;;;;0.00;0.00;;;;;;;28.58;25.69;102378.97;5060158;28;20393;-67
2023/06/04 10:51:52;;;;;;;0.00;0.00;;;;;;;29.36;25.76;102377.78;5057247;28;20025;-67
2023/06/04 10:54:27;;;;;;;0.00;0.00;;;;;;;29.61;24.56;102368.81;5059473;28;20424;-66
2023/06/04 10:56:53;;;;;;;0.00;0.00;;;;;;;27.34;26.26;102378.16;5059790;28;20033;-65
2023/06/04 10:59:19;;;;;;;0.00;0.00;;;;;;;27.60;26.24;102371.13;5057315;28;20094;-67
2023/06/04 11:01:45;;;;;;;0.00;0.00;;;;;;;28.83;24.46;102361.00;5059796;28;20040;-65
2023/06/04 11:04:24;;;;;;;0.00;0.00;;;;;;;29.15;24.91;102365.56;5059195;28;20032;-67
2023/06/04 11:07:09;;;;;;;0.00;0.00;;;;;;;30.38;23.60;102366.50;5058929;28;20032;-65
2023/06/04 11:09:53;;;;;;;0.00;0.00;;;;;;;30.21;23.58;102363.63;5056958;28;20391;-66
2023/06/04 11:12:19;;;;;;;0.00;0.00;;;;;;;29.41;23.99;102366.56;5058616;28;20079;-66
2023/06/04 11:14:59;;;;;;;0.00;0.00;;;;;;;29.67;24.18;102364.78;5059183;28;20392;-67
2023/06/04 11:17:24;;;;;;;0.00;0.00;;;;;;;30.07;23.63;102369.25;5049518;28;20586;-67
2023/06/04 11:19:55;;;;;;;0.00;0.00;;;;;;;30.33;23.36;102369.41;5050057;28;20032;-68
2023/06/04 11:22:20;;;;;;;0.00;0.00;;;;;;;30.92;23.41;102373.47;5049515;28;20055;-66